This is the latest recevied weather packets stored in our database for station/object G0AMO. If no packets are shown the sender has not sent any weather packets the latest 10 day(s).
| Time | Temp. | Humidity | Pressure | Rain* | Wind** | Luminosity | Snow |
|---|---|---|---|---|---|---|---|
| 1777940704 | 11.67° C | 89% | 1015.6 hPa | 0 mm | - | 0 W/m² | - |
| 1777940104 | 11.67° C | 89% | 1015.6 hPa | 0 mm | - | 0 W/m² | - |
| 1777935904 | 12.22° C | 87% | 1015.9 hPa | 0 mm | - | 0 W/m² | - |
| 1777929604 | 12.22° C | 87% | 1015.2 hPa | 0 mm | - | 0 W/m² | - |
| 1777929004 | 12.22° C | 87% | 1015.9 hPa | 0 mm | - | 0 W/m² | - |
| 1777928106 | 12.22° C | 87% | 1015.2 hPa | 0 mm | - | 0 W/m² | - |
| 1777926304 | 12.78° C | 87% | 1015.7 hPa | 0 mm | - | 0 W/m² | - |
| 1777925404 | 12.78° C | 87% | 1015.6 hPa | 0 mm | - | 0 W/m² | - |
| 1777922404 | 13.33° C | 86% | 1015.2 hPa | 0 mm | - | 0 W/m² | - |
| 1777921205 | 13.33° C | 85% | 1014.9 hPa | 0 mm | - | 0 W/m² | - |
| 1777915504 | 13.33° C | 84% | 1014.9 hPa | 0 mm | - | 208 W/m² | - |
| 1777913104 | 14.44° C | 82% | 1014.2 hPa | 0 mm | - | 378 W/m² | - |
| 1777912504 | 14.44° C | 82% | 1014.2 hPa | 0 mm | - | 423 W/m² | - |
| 1777911304 | 14.44° C | 82% | 1014.2 hPa | 0 mm | - | 515 W/m² | - |
| 1777910104 | 15° C | 80% | 1014.6 hPa | 0 mm | - | 608 W/m² | - |
| 1777901104 | 16.67° C | 71% | 1014.9 hPa | 0 mm | - | 1157 W/m² | - |
| 1777900205 | 16.67° C | 71% | 1014.9 hPa | 0 mm | - | 1183 W/m² | - |
| 1777898404 | 16.11° C | 76% | 1014.2 hPa | 0 mm | - | 1212 W/m² | - |
| 1777896005 | 15° C | 82% | 1015.2 hPa | 0 mm | - | 1203 W/m² | - |
| 1777895404 | 15° C | 83% | 1014.6 hPa | 0 mm | - | 1192 W/m² | - |
| 1777895104 | 14.44° C | 86% | 1015.2 hPa | 0 mm | - | 1186 W/m² | - |
| 1777891504 | 13.89° C | 87% | 1015.2 hPa | 0 mm | - | 1047 W/m² | - |
| 1777890905 | 14.44° C | 86% | 1015.2 hPa | 0 mm | - | 1014 W/m² | - |
| 1777889404 | 14.44° C | 85% | 1015.2 hPa | 0 mm | - | 923 W/m² | - |
| 1777889104 | 14.44° C | 86% | 1015.2 hPa | 0 mm | - | 903 W/m² | - |
* Rain latest hour (hover to see other rain measurements)
** Current wind speed in m/s (hover to see current wind gust speed)